createdAt,value
2018-01-24T00:00:28.797Z,4.6
2018-01-24T00:01:56.227Z,4.6
2018-01-24T00:03:16.067Z,4.6
2018-01-24T00:04:35.914Z,4.6
2018-01-24T00:05:55.737Z,4.6
2018-01-24T00:07:23.126Z,4.6
2018-01-24T00:08:45.481Z,4.6
2018-01-24T00:10:07.855Z,4.6
2018-01-24T00:11:27.700Z,4.6
2018-01-24T00:12:50.072Z,4.6
2018-01-24T00:14:12.399Z,4.6
2018-01-24T00:15:39.784Z,4.6
2018-01-24T00:16:59.595Z,4.6
2018-01-24T00:18:29.584Z,4.6
2018-01-24T00:19:49.382Z,4.6
2018-01-24T00:21:09.201Z,4.7
2018-01-24T00:22:29.003Z,4.7
2018-01-24T00:23:48.830Z,4.7
2018-01-24T00:25:11.194Z,4.7
2018-01-24T00:26:36.083Z,4.6
2018-01-24T00:27:58.448Z,4.6
2018-01-24T00:29:20.829Z,4.5
2018-01-24T00:30:40.689Z,4.5
2018-01-24T00:32:00.498Z,4.5
2018-01-24T00:33:20.335Z,4.4
2018-01-24T00:34:42.676Z,4.4
2018-01-24T00:36:02.529Z,4.3
2018-01-24T00:37:22.410Z,4.1
2018-01-24T00:38:54.870Z,4.2
2018-01-24T00:40:17.221Z,4.1
2018-01-24T00:41:37.026Z,4.1
2018-01-24T00:43:01.897Z,4.1
2018-01-24T00:44:21.731Z,4.1
2018-01-24T00:45:51.688Z,4.1
2018-01-24T00:47:14.069Z,4.1
2018-01-24T00:48:44.057Z,4.1
2018-01-24T00:50:03.880Z,4.2
2018-01-24T00:51:23.682Z,4.4
2018-01-24T00:52:46.069Z,4.4
2018-01-24T00:54:05.925Z,4.4
2018-01-24T00:55:25.803Z,4.4
2018-01-24T00:56:45.598Z,4.2
2018-01-24T00:58:08.010Z,4.2
2018-01-24T00:59:27.824Z,4.2
2018-01-24T01:00:47.696Z,4.3
2018-01-24T01:02:10.038Z,4.3
2018-01-24T01:03:29.853Z,4.4
2018-01-24T01:04:49.688Z,4.4
2018-01-24T01:06:12.017Z,4.4
2018-01-24T01:07:34.346Z,4.4
2018-01-24T01:08:54.163Z,4.4
2018-01-24T01:10:19.034Z,4.4
2018-01-24T01:11:38.881Z,4.5
2018-01-24T01:12:58.699Z,4.5
2018-01-24T01:14:18.500Z,4.5
2018-01-24T01:15:40.892Z,4.5
2018-01-24T01:17:05.779Z,4.6
2018-01-24T01:18:25.582Z,4.6
2018-01-24T01:19:47.986Z,4.6
2018-01-24T01:21:07.817Z,4.6
2018-01-24T01:22:30.174Z,4.6
2018-01-24T01:23:55.052Z,4.7
2018-01-24T01:25:14.872Z,4.7
2018-01-24T01:26:37.238Z,4.6
2018-01-24T01:28:04.691Z,4.6
2018-01-24T01:29:24.526Z,4.5
2018-01-24T01:30:54.537Z,4.4
2018-01-24T01:32:19.433Z,4.4
2018-01-24T01:33:41.759Z,4.4
2018-01-24T01:35:01.579Z,4.4
2018-01-24T01:36:34.094Z,4.4
2018-01-24T01:37:53.911Z,4.4
2018-01-24T01:39:23.885Z,4.4
2018-01-24T01:40:48.754Z,4.3
2018-01-24T01:42:11.115Z,4.3
2018-01-24T01:43:33.467Z,4.3
2018-01-24T01:45:03.449Z,4.2
2018-01-24T01:46:23.304Z,4.2
2018-01-24T01:47:48.183Z,4.2
2018-01-24T01:49:10.551Z,4.2
2018-01-24T01:50:35.461Z,4.1
2018-01-24T01:51:57.862Z,4.1
2018-01-24T01:53:20.242Z,4
2018-01-24T01:54:42.626Z,3.9
2018-01-24T01:56:02.440Z,3.9
2018-01-24T01:57:27.300Z,3.9
2018-01-24T01:58:49.673Z,3.8
2018-01-24T02:00:09.478Z,3.8
2018-01-24T02:01:31.857Z,3.8
2018-01-24T02:02:56.726Z,3.8
2018-01-24T02:04:16.581Z,3.8
2018-01-24T02:05:36.422Z,3.7
2018-01-24T02:07:01.367Z,3.6
2018-01-24T02:08:28.777Z,3.6
2018-01-24T02:09:48.577Z,3.6
2018-01-24T02:11:08.385Z,3.6
2018-01-24T02:12:30.775Z,3.6
2018-01-24T02:13:50.579Z,3.6
2018-01-24T02:15:10.455Z,3.6
2018-01-24T02:16:30.261Z,3.8
2018-01-24T02:17:50.070Z,3.8
2018-01-24T02:19:25.107Z,3.9
2018-01-24T02:20:47.451Z,3.9
2018-01-24T02:22:09.799Z,3.8
2018-01-24T02:23:29.647Z,3.8
2018-01-24T02:24:59.576Z,3.7
2018-01-24T02:26:24.475Z,3.7
2018-01-24T02:27:44.326Z,3.8
2018-01-24T02:29:11.719Z,3.8
2018-01-24T02:30:31.570Z,3.8
2018-01-24T02:32:01.526Z,3.9
2018-01-24T02:33:28.972Z,4
2018-01-24T02:34:48.781Z,4.1
2018-01-24T02:36:08.594Z,4.1
2018-01-24T02:37:33.464Z,4.1
2018-01-24T02:38:53.332Z,4.1
2018-01-24T02:40:13.156Z,4.1
2018-01-24T02:41:33.028Z,4.1
2018-01-24T02:42:55.390Z,4.1
2018-01-24T02:44:20.251Z,4.2
2018-01-24T02:45:52.716Z,4.3
2018-01-24T02:47:20.124Z,4.3
2018-01-24T02:48:44.994Z,4.3
2018-01-24T02:50:04.793Z,4.4
2018-01-24T02:51:24.640Z,4.4
2018-01-24T02:52:52.068Z,4.4
2018-01-24T02:54:11.871Z,4.4
2018-01-24T02:55:41.809Z,4.4
2018-01-24T02:57:06.701Z,4.4
2018-01-24T02:58:29.065Z,4.4
2018-01-24T02:59:53.943Z,4.4
2018-01-24T03:01:21.382Z,4.4
2018-01-24T03:02:41.222Z,4.4
2018-01-24T03:04:03.600Z,4.4
2018-01-24T03:05:28.468Z,4.3
2018-01-24T03:06:48.325Z,4.3
2018-01-24T03:08:08.126Z,4.3
2018-01-24T03:09:27.948Z,4.4
2018-01-24T03:10:47.759Z,4.4
2018-01-24T03:12:07.578Z,4.4
2018-01-24T03:13:32.453Z,4.4
2018-01-24T03:14:54.854Z,4.3
2018-01-24T03:16:14.660Z,4.2
2018-01-24T03:17:42.101Z,4.1
2018-01-24T03:19:09.501Z,4
2018-01-24T03:20:31.888Z,3.9
2018-01-24T03:21:54.235Z,3.7
2018-01-24T03:23:19.151Z,3.8
2018-01-24T03:24:38.954Z,3.7
2018-01-24T03:26:21.613Z,3.7
2018-01-24T03:27:41.453Z,3.7
2018-01-24T03:29:03.786Z,3.8
2018-01-24T03:30:26.175Z,3.7
2018-01-24T03:31:48.508Z,3.8
2018-01-24T03:33:15.960Z,3.8
2018-01-24T03:34:35.835Z,4
2018-01-24T03:35:55.641Z,4.1
2018-01-24T03:37:15.502Z,4.1
2018-01-24T03:38:35.366Z,4.2
2018-01-24T03:40:00.229Z,4.2
2018-01-24T03:41:20.029Z,4.3
2018-01-24T03:42:39.891Z,4.3
2018-01-24T03:44:02.216Z,4.3
2018-01-24T03:45:22.020Z,4.3
2018-01-24T03:46:41.828Z,4.3
2018-01-24T03:48:01.675Z,4.3
2018-01-24T03:49:21.552Z,4.1
2018-01-24T03:50:43.886Z,4.1
2018-01-24T03:52:03.729Z,4.2
2018-01-24T03:53:23.554Z,4.2
2018-01-24T03:54:45.928Z,4.3
2018-01-24T03:56:05.817Z,4.3
2018-01-24T03:57:25.614Z,4.4
2018-01-24T03:58:47.981Z,4.5
2018-01-24T04:00:12.847Z,4.5
2018-01-24T04:01:32.665Z,4.6
2018-01-24T04:02:55.005Z,4.6
2018-01-24T04:04:22.460Z,4.4
2018-01-24T04:05:42.261Z,4.3
2018-01-24T04:07:07.147Z,4.1
2018-01-24T04:08:26.948Z,4.2
2018-01-24T04:09:46.755Z,4.1
2018-01-24T04:11:09.098Z,4.2
2018-01-24T04:12:33.975Z,4.3
2018-01-24T04:13:53.777Z,4.2
2018-01-24T04:15:33.835Z,4.2
2018-01-24T04:16:56.196Z,4.2
2018-01-24T04:18:21.093Z,4.1
2018-01-24T04:19:43.438Z,4
2018-01-24T04:21:05.807Z,4
2018-01-24T04:22:28.192Z,3.9
2018-01-24T04:23:48.000Z,3.9
2018-01-24T04:25:07.798Z,4
2018-01-24T04:26:30.131Z,3.9
2018-01-24T04:27:52.485Z,3.8
2018-01-24T04:29:12.330Z,3.8
2018-01-24T04:30:32.142Z,3.8
2018-01-24T04:31:57.001Z,3.9
2018-01-24T04:33:16.805Z,3.9
2018-01-24T04:34:39.139Z,4
2018-01-24T04:36:04.016Z,4
2018-01-24T04:37:26.407Z,4
2018-01-24T04:38:46.241Z,4
2018-01-24T04:40:11.164Z,4
2018-01-24T04:41:30.994Z,4
2018-01-24T04:42:55.939Z,3.9
2018-01-24T04:44:15.756Z,3.9
2018-01-24T04:45:35.570Z,3.9
2018-01-24T04:46:55.449Z,3.8
2018-01-24T04:48:15.247Z,3.8
2018-01-24T04:49:37.595Z,3.8
2018-01-24T04:50:57.400Z,3.8
2018-01-24T04:52:32.427Z,3.8
2018-01-24T04:53:52.283Z,3.8
2018-01-24T04:55:14.638Z,3.9
2018-01-24T04:56:34.434Z,3.9
2018-01-24T04:57:54.280Z,3.9
2018-01-24T04:59:14.090Z,3.9
2018-01-24T05:00:33.901Z,4
2018-01-24T05:01:53.750Z,4.1
2018-01-24T05:03:13.559Z,4.1
2018-01-24T05:04:33.421Z,4.1
2018-01-24T05:05:58.311Z,4.1
2018-01-24T05:07:18.114Z,4.1
2018-01-24T05:09:00.730Z,4.2
2018-01-24T05:10:20.571Z,4.2
2018-01-24T05:11:45.551Z,4.3
2018-01-24T05:13:07.934Z,4.3
2018-01-24T05:14:37.873Z,4.4
2018-01-24T05:16:00.206Z,4.5
2018-01-24T05:17:20.037Z,4.6
2018-01-24T05:18:42.420Z,4.6
2018-01-24T05:20:07.327Z,4.6
2018-01-24T05:21:34.732Z,4.5
2018-01-24T05:23:02.114Z,4.6
2018-01-24T05:24:24.449Z,4.7
2018-01-24T05:25:51.897Z,4.7
2018-01-24T05:27:11.898Z,4.7
2018-01-24T05:28:34.232Z,4.7
2018-01-24T05:29:56.618Z,4.8
2018-01-24T05:31:16.491Z,4.7
2018-01-24T05:32:38.855Z,4.7
2018-01-24T05:34:03.722Z,4.7
2018-01-24T05:35:23.536Z,4.7
2018-01-24T05:36:43.375Z,4.6
2018-01-24T05:38:03.184Z,4.7
2018-01-24T05:39:25.549Z,4.6
2018-01-24T05:40:47.946Z,4.6
2018-01-24T05:42:12.811Z,4.6
2018-01-24T05:43:32.626Z,4.6
2018-01-24T05:44:54.962Z,4.6
2018-01-24T05:46:17.370Z,4.6
2018-01-24T05:47:37.175Z,4.6
2018-01-24T05:48:57.010Z,4.6
2018-01-24T05:50:19.411Z,4.6
2018-01-24T05:51:41.754Z,4.7
2018-01-24T05:53:01.589Z,4.6
2018-01-24T05:54:21.430Z,4.6
2018-01-24T05:55:43.769Z,4.6
2018-01-24T05:57:03.581Z,4.6
2018-01-24T05:58:26.004Z,4.6
2018-01-24T05:59:45.832Z,4.6
2018-01-24T06:01:08.225Z,4.6
2018-01-24T06:02:35.640Z,4.7
2018-01-24T06:03:55.463Z,4.7
2018-01-24T06:05:15.280Z,4.8
2018-01-24T06:06:35.089Z,4.8
2018-01-24T06:07:57.418Z,4.8
2018-01-24T06:09:27.409Z,4.8
2018-01-24T06:10:52.292Z,4.9
2018-01-24T06:12:17.191Z,4.9
2018-01-24T06:13:44.602Z,4.9
2018-01-24T06:15:09.505Z,4.9
2018-01-24T06:16:29.362Z,4.9
2018-01-24T06:17:49.179Z,4.9
2018-01-24T06:19:14.076Z,4.9
2018-01-24T06:20:36.438Z,4.9
2018-01-24T06:21:56.264Z,4.9
2018-01-24T06:23:16.099Z,4.8
2018-01-24T06:24:38.435Z,4.8
2018-01-24T06:26:18.500Z,4.8
2018-01-24T06:27:40.897Z,4.8
2018-01-24T06:29:00.717Z,4.8
2018-01-24T06:30:20.550Z,4.8
2018-01-24T06:31:40.406Z,4.8
2018-01-24T06:33:00.275Z,4.8
2018-01-24T06:34:20.072Z,4.8
2018-01-24T06:35:39.886Z,4.8
2018-01-24T06:37:02.229Z,4.7
2018-01-24T06:38:22.038Z,4.7
2018-01-24T06:39:41.846Z,4.7
2018-01-24T06:41:06.720Z,4.7
2018-01-24T06:42:26.555Z,4.8
2018-01-24T06:43:46.399Z,4.8
2018-01-24T06:45:16.433Z,4.8
2018-01-24T06:46:38.768Z,4.8
2018-01-24T06:47:58.581Z,4.9
2018-01-24T06:49:18.409Z,4.9
2018-01-24T06:50:38.222Z,5
2018-01-24T06:52:05.613Z,5
2018-01-24T06:53:27.995Z,5
2018-01-24T06:54:50.372Z,5
2018-01-24T06:56:10.238Z,5
2018-01-24T06:57:30.034Z,5.1
2018-01-24T06:58:49.866Z,5.1
2018-01-24T07:00:09.730Z,5.1
2018-01-24T07:01:39.658Z,5.1
2018-01-24T07:03:04.566Z,5.1
2018-01-24T07:04:26.935Z,5.1
2018-01-24T07:05:49.281Z,5.1
2018-01-24T07:07:09.089Z,5.1
2018-01-24T07:08:28.890Z,5.1
2018-01-24T07:09:48.692Z,5.1
2018-01-24T07:11:08.518Z,5.1
2018-01-24T07:12:28.326Z,5.1
2018-01-24T07:13:48.121Z,5.1
2018-01-24T07:15:12.994Z,5.1
2018-01-24T07:16:32.807Z,5.1
2018-01-24T07:17:55.150Z,5.1
2018-01-24T07:19:14.949Z,5.1
2018-01-24T07:20:37.328Z,5.2
2018-01-24T07:22:02.194Z,5.1
2018-01-24T07:23:29.575Z,5.2
2018-01-24T07:24:59.518Z,5.2
2018-01-24T07:26:26.967Z,5.2
2018-01-24T07:27:56.896Z,5.2
2018-01-24T07:29:16.753Z,5.2
2018-01-24T07:30:36.577Z,5.2
2018-01-24T07:31:58.931Z,5.2
2018-01-24T07:33:18.735Z,5.2
2018-01-24T07:34:51.223Z,5.2
2018-01-24T07:36:11.053Z,5.2
2018-01-24T07:37:30.877Z,5.2
2018-01-24T07:38:55.785Z,5.3
2018-01-24T07:40:23.194Z,5.3
2018-01-24T07:41:48.063Z,5.4
2018-01-24T07:43:07.864Z,5.4
2018-01-24T07:44:32.810Z,5.5
2018-01-24T07:45:52.627Z,5.6
2018-01-24T07:47:14.963Z,5.6
2018-01-24T07:48:34.768Z,5.6
2018-01-24T07:49:54.577Z,5.6
2018-01-24T07:51:16.956Z,5.5
2018-01-24T07:52:39.315Z,5.6
2018-01-24T07:53:59.132Z,5.7
2018-01-24T07:55:18.928Z,5.7
2018-01-24T07:56:43.837Z,5.7
2018-01-24T07:58:06.189Z,5.8
2018-01-24T07:59:26.019Z,5.8
2018-01-24T08:00:50.923Z,5.9
2018-01-24T08:02:15.814Z,5.9
2018-01-24T08:03:35.637Z,5.9
2018-01-24T08:04:58.004Z,6
2018-01-24T08:06:17.827Z,6
2018-01-24T08:07:45.284Z,6
2018-01-24T08:09:05.084Z,6.1
2018-01-24T08:10:24.899Z,6
2018-01-24T08:11:44.704Z,6
2018-01-24T08:13:07.048Z,6
2018-01-24T08:14:34.474Z,6
2018-01-24T08:15:54.333Z,6
2018-01-24T08:17:16.684Z,6
2018-01-24T08:18:44.105Z,6
2018-01-24T08:20:06.475Z,5.9
2018-01-24T08:21:26.375Z,5.9
2018-01-24T08:22:46.220Z,5.9
2018-01-24T08:24:08.570Z,5.8
2018-01-24T08:25:30.961Z,5.8
2018-01-24T08:27:00.926Z,5.8
2018-01-24T08:28:20.747Z,5.8
2018-01-24T08:29:43.069Z,5.8
2018-01-24T08:31:05.436Z,5.7
2018-01-24T08:32:25.251Z,5.8
2018-01-24T08:33:45.093Z,5.7
2018-01-24T08:35:04.941Z,5.7
2018-01-24T08:36:27.284Z,5.8
2018-01-24T08:37:47.102Z,5.8
2018-01-24T08:39:06.899Z,5.8
2018-01-24T08:40:29.282Z,5.7
2018-01-24T08:41:51.657Z,5.8
2018-01-24T08:43:11.491Z,5.8
2018-01-24T08:44:33.875Z,5.9
2018-01-24T08:45:56.280Z,6
2018-01-24T08:47:16.153Z,6
2018-01-24T08:48:36.045Z,5.9
2018-01-24T08:49:55.869Z,6
2018-01-24T08:51:15.687Z,6.1
2018-01-24T08:52:38.061Z,6.1
2018-01-24T08:53:57.872Z,6.2
2018-01-24T08:55:17.710Z,6.3
2018-01-24T08:56:37.519Z,6.4
2018-01-24T08:57:57.361Z,6.5
2018-01-24T08:59:17.167Z,6.7
2018-01-24T09:00:54.747Z,6.9
2018-01-24T09:02:17.089Z,6.8
2018-01-24T09:03:36.888Z,6.7
2018-01-24T09:05:06.826Z,6.7
2018-01-24T09:06:31.734Z,6.7
2018-01-24T09:07:51.579Z,6.7
2018-01-24T09:09:16.523Z,6.7
2018-01-24T09:10:43.962Z,6.8
2018-01-24T09:12:03.815Z,6.8
2018-01-24T09:13:23.670Z,6.8
2018-01-24T09:14:53.614Z,6.9
2018-01-24T09:16:13.424Z,6.9
2018-01-24T09:17:33.230Z,6.9
2018-01-24T09:18:58.113Z,7
2018-01-24T09:20:17.926Z,7
2018-01-24T09:21:40.276Z,6.9
2018-01-24T09:23:00.143Z,6.9
2018-01-24T09:24:27.530Z,6.8
2018-01-24T09:25:57.519Z,6.8
2018-01-24T09:27:19.884Z,6.9
2018-01-24T09:28:52.393Z,6.9
2018-01-24T09:30:14.737Z,6.9
2018-01-24T09:31:34.541Z,6.9
2018-01-24T09:32:54.372Z,6.9
2018-01-24T09:34:19.290Z,6.9
2018-01-24T09:35:41.645Z,6.9
2018-01-24T09:37:04.018Z,6.8
2018-01-24T09:38:23.817Z,6.7
2018-01-24T09:39:46.181Z,6.7
2018-01-24T09:41:13.601Z,6.7
2018-01-24T09:42:41.074Z,6.7
2018-01-24T09:44:00.918Z,6.7
2018-01-24T09:45:38.460Z,6.7
2018-01-24T09:47:00.836Z,6.6
2018-01-24T09:48:28.233Z,6.6
2018-01-24T09:49:53.167Z,6.6
2018-01-24T09:51:18.031Z,6.6
2018-01-24T09:52:48.004Z,6.7
2018-01-24T09:54:07.813Z,6.7
2018-01-24T09:55:27.608Z,6.7
2018-01-24T09:56:49.983Z,6.7
2018-01-24T09:58:12.324Z,6.7
2018-01-24T09:59:34.676Z,6.6
2018-01-24T10:01:12.232Z,6.7
2018-01-24T10:02:32.082Z,6.8
2018-01-24T10:03:54.424Z,6.9
2018-01-24T10:05:14.279Z,7
2018-01-24T10:06:34.093Z,7
2018-01-24T10:08:04.017Z,7
2018-01-24T10:09:23.808Z,7
2018-01-24T10:10:43.653Z,6.9
2018-01-24T10:12:06.021Z,7
2018-01-24T10:13:38.492Z,7
2018-01-24T10:15:11.022Z,7.1
2018-01-24T10:16:38.438Z,7.2
2018-01-24T10:17:58.241Z,7.2
2018-01-24T10:19:20.594Z,7.2
2018-01-24T10:20:40.466Z,7.2
2018-01-24T10:22:00.334Z,7.2
2018-01-24T10:23:22.656Z,7.1
2018-01-24T10:24:42.476Z,7.1
2018-01-24T10:26:04.870Z,7.1
2018-01-24T10:27:27.225Z,7.2
2018-01-24T10:28:54.630Z,7.1
2018-01-24T10:30:19.499Z,7.1
2018-01-24T10:31:39.327Z,7.1
2018-01-24T10:33:01.690Z,7.2
2018-01-24T10:34:21.527Z,7.3
2018-01-24T10:35:46.475Z,7.4
2018-01-24T10:37:06.369Z,7.4
2018-01-24T10:38:28.728Z,7.4
2018-01-24T10:39:48.525Z,7.4
2018-01-24T10:41:13.413Z,7.6
2018-01-24T10:42:35.777Z,7.7
2018-01-24T10:43:58.121Z,7.9
2018-01-24T10:45:20.517Z,8
2018-01-24T10:46:45.422Z,8.2
2018-01-24T10:48:05.236Z,8.3
2018-01-24T10:49:27.573Z,8.2
2018-01-24T10:50:47.392Z,8.2
2018-01-24T10:52:07.207Z,8.1
2018-01-24T10:53:37.154Z,8.2
2018-01-24T10:54:56.961Z,8.3
2018-01-24T10:56:16.762Z,8.4
2018-01-24T10:57:36.596Z,8.6
2018-01-24T10:58:56.430Z,8.7
2018-01-24T11:00:23.832Z,8.7
2018-01-24T11:01:51.282Z,8.7
2018-01-24T11:03:11.129Z,8.7
2018-01-24T11:04:36.026Z,8.7
2018-01-24T11:05:55.870Z,8.8
2018-01-24T11:07:25.839Z,8.7
2018-01-24T11:08:48.165Z,8.8
2018-01-24T11:10:13.079Z,8.9
2018-01-24T11:11:32.891Z,9.1
2018-01-24T11:13:00.332Z,9.1
2018-01-24T11:14:20.166Z,9.2
2018-01-24T11:15:39.972Z,9.2
2018-01-24T11:17:09.959Z,9.2
2018-01-24T11:18:29.829Z,9
2018-01-24T11:19:54.737Z,8.9
2018-01-24T11:21:19.635Z,8.7
2018-01-24T11:22:42.009Z,8.8
2018-01-24T11:24:01.860Z,9
2018-01-24T11:25:26.729Z,9
2018-01-24T11:26:46.557Z,9
2018-01-24T11:28:06.450Z,9
2018-01-24T11:29:28.794Z,9
2018-01-24T11:30:48.612Z,9.1
2018-01-24T11:32:11.019Z,9
2018-01-24T11:33:30.892Z,9
2018-01-24T11:34:50.721Z,9.3
2018-01-24T11:36:10.539Z,9.3
2018-01-24T11:37:30.401Z,9.5
2018-01-24T11:38:50.232Z,9.5
2018-01-24T11:40:10.042Z,9.9
2018-01-24T11:41:32.385Z,9.9
2018-01-24T11:42:52.207Z,10
2018-01-24T11:44:14.560Z,10.1
2018-01-24T11:45:34.443Z,10.2
2018-01-24T11:46:54.260Z,10.4
2018-01-24T11:48:16.677Z,10.3
2018-01-24T11:49:36.528Z,10.4
2018-01-24T11:50:58.873Z,10.4
2018-01-24T11:52:18.703Z,10.4
2018-01-24T11:53:41.095Z,10.4
2018-01-24T11:55:03.476Z,10.5
2018-01-24T11:56:23.348Z,10.6
2018-01-24T11:57:43.184Z,10.4
2018-01-24T11:59:03.017Z,10.4
2018-01-24T12:00:25.382Z,10.7
2018-01-24T12:01:47.787Z,10.8
2018-01-24T12:03:07.646Z,10.9
2018-01-24T12:04:29.997Z,11
2018-01-24T12:05:52.341Z,11.2
2018-01-24T12:07:14.688Z,11.2
2018-01-24T12:08:42.099Z,11.1
2018-01-24T12:10:01.919Z,10.9
2018-01-24T12:11:24.337Z,10.9
2018-01-24T12:12:44.148Z,10.9
2018-01-24T12:14:06.598Z,10.9
2018-01-24T12:15:31.510Z,11.1
2018-01-24T12:17:01.511Z,10.7
2018-01-24T12:18:21.411Z,10.6
2018-01-24T12:19:41.271Z,11
2018-01-24T12:21:06.189Z,11.5
2018-01-24T12:22:43.734Z,12
2018-01-24T12:24:03.564Z,12.3
2018-01-24T12:25:25.948Z,12.5
2018-01-24T12:26:53.400Z,12.5
2018-01-24T12:28:15.847Z,12.9
2018-01-24T12:29:35.700Z,13
2018-01-24T12:30:58.069Z,12.8
2018-01-24T12:32:22.935Z,12.5
2018-01-24T12:33:42.787Z,12.1
2018-01-24T12:35:02.598Z,12.1
2018-01-24T12:36:27.492Z,12.3
2018-01-24T12:37:47.342Z,12.5
2018-01-24T12:39:24.888Z,12.7
2018-01-24T12:40:54.862Z,13
2018-01-24T12:42:19.758Z,12.9
2018-01-24T12:43:42.166Z,13.4
2018-01-24T12:45:01.995Z,13.2
2018-01-24T12:46:31.978Z,13
2018-01-24T12:47:51.815Z,12.7
2018-01-24T12:49:11.653Z,12.4
2018-01-24T12:50:31.504Z,12.1
2018-01-24T12:51:51.386Z,11.9
2018-01-24T12:53:11.232Z,11.6
2018-01-24T12:54:31.105Z,11.5
2018-01-24T12:55:51.018Z,11.7
2018-01-24T12:57:13.375Z,11.5
2018-01-24T12:58:33.181Z,11.3
2018-01-24T13:00:00.615Z,11.2
2018-01-24T13:01:22.992Z,11.3
2018-01-24T13:02:42.805Z,12
2018-01-24T13:04:10.233Z,11.8
2018-01-24T13:05:42.712Z,13
2018-01-24T13:07:05.119Z,12.6
2018-01-24T13:08:24.951Z,12.3
2018-01-24T13:09:44.814Z,12
2018-01-24T13:11:12.227Z,11.7
2018-01-24T13:12:32.047Z,12.1
2018-01-24T13:13:54.454Z,12.4
2018-01-24T13:15:14.281Z,12.6
2018-01-24T13:16:34.104Z,12.1
2018-01-24T13:17:53.982Z,11.8
2018-01-24T13:19:13.836Z,11.5
2018-01-24T13:20:33.690Z,11.7
2018-01-24T13:21:53.527Z,12.2
2018-01-24T13:23:18.437Z,11.7
2018-01-24T13:24:43.326Z,11.5
2018-01-24T13:26:03.137Z,11.6
2018-01-24T13:27:22.949Z,11.6
2018-01-24T13:28:42.769Z,11.4
2018-01-24T13:30:02.626Z,11.3
2018-01-24T13:31:22.439Z,11.1
2018-01-24T13:32:42.257Z,10.9
2018-01-24T13:34:07.176Z,10.9
2018-01-24T13:35:34.596Z,10.9
2018-01-24T13:36:54.466Z,11
2018-01-24T13:38:14.353Z,10.7
2018-01-24T13:39:36.747Z,10.6
2018-01-24T13:40:56.606Z,10.6
2018-01-24T13:42:21.513Z,10.4
2018-01-24T13:43:43.910Z,10.3
2018-01-24T13:45:06.346Z,10
2018-01-24T13:46:31.249Z,10
2018-01-24T13:47:51.148Z,10.3
2018-01-24T13:49:16.056Z,10.4
2018-01-24T13:50:38.401Z,10.7
2018-01-24T13:51:58.248Z,10.7
2018-01-24T13:53:20.603Z,10.7
2018-01-24T13:54:40.482Z,10.6
2018-01-24T13:56:00.364Z,10.7
2018-01-24T13:57:20.229Z,10.8
2018-01-24T13:59:00.310Z,10.9
2018-01-24T14:00:22.666Z,10.9
2018-01-24T14:01:42.482Z,10.7
2018-01-24T14:03:02.358Z,10.8
2018-01-24T14:04:27.300Z,10.8
2018-01-24T14:05:49.660Z,10.8
2018-01-24T14:07:09.485Z,10.8
2018-01-24T14:08:29.358Z,10.8
2018-01-24T14:09:49.199Z,10.8
2018-01-24T14:11:11.622Z,10.7
2018-01-24T14:12:44.159Z,10.7
2018-01-24T14:14:09.042Z,10.7
2018-01-24T14:15:28.864Z,10.8
2018-01-24T14:16:48.738Z,10.6
2018-01-24T14:18:11.128Z,10.5
2018-01-24T14:19:31.000Z,10.5
2018-01-24T14:20:55.954Z,10.4
2018-01-24T14:22:15.812Z,10.3
2018-01-24T14:23:35.640Z,10.2
2018-01-24T14:24:58.020Z,10.1
2018-01-24T14:26:17.864Z,10.1
2018-01-24T14:27:40.203Z,10.1
2018-01-24T14:29:00.008Z,9.9
2018-01-24T14:30:35.022Z,9.9
2018-01-24T14:31:57.378Z,9.8
2018-01-24T14:33:19.708Z,9.7
2018-01-24T14:34:42.060Z,9.7
2018-01-24T14:36:09.450Z,9.4
2018-01-24T14:37:29.261Z,9.2
2018-01-24T14:38:54.202Z,9.1
2018-01-24T14:40:21.642Z,9
2018-01-24T14:41:44.010Z,8.9
2018-01-24T14:43:03.880Z,8.9
2018-01-24T14:44:23.682Z,9
2018-01-24T14:45:43.485Z,9.1
2018-01-24T14:47:05.881Z,8.9
2018-01-24T14:48:30.771Z,8.8
2018-01-24T14:49:55.705Z,8.8
2018-01-24T14:51:15.509Z,8.7
2018-01-24T14:52:42.941Z,8.7
2018-01-24T14:54:02.762Z,8.7
2018-01-24T14:55:22.563Z,8.7
2018-01-24T14:56:42.365Z,8.6
2018-01-24T14:58:09.834Z,8.6
2018-01-24T14:59:32.212Z,8.7
2018-01-24T15:00:54.549Z,8.8
2018-01-24T15:02:16.900Z,8.8
2018-01-24T15:03:36.711Z,8.8
2018-01-24T15:04:56.533Z,8.7
2018-01-24T15:06:16.422Z,8.7
2018-01-24T15:07:36.307Z,8.7
2018-01-24T15:08:56.206Z,8.7
2018-01-24T15:10:16.041Z,8.6
2018-01-24T15:11:43.453Z,8.6
2018-01-24T15:13:08.313Z,8.6
2018-01-24T15:14:30.673Z,8.6
2018-01-24T15:15:58.115Z,8.6
2018-01-24T15:17:17.953Z,8.5
2018-01-24T15:18:40.281Z,8.5
2018-01-24T15:20:05.189Z,8.4
2018-01-24T15:21:25.038Z,8.3
2018-01-24T15:22:49.952Z,8.3
2018-01-24T15:24:09.748Z,8.2
2018-01-24T15:25:29.563Z,8.2
2018-01-24T15:26:54.427Z,8.1
2018-01-24T15:28:14.249Z,8
2018-01-24T15:29:36.622Z,8
2018-01-24T15:30:58.992Z,8
2018-01-24T15:32:18.817Z,8
2018-01-24T15:33:38.676Z,8
2018-01-24T15:34:58.486Z,8
2018-01-24T15:36:25.970Z,8
2018-01-24T15:37:45.797Z,8
2018-01-24T15:39:08.144Z,8
2018-01-24T15:40:27.981Z,8
2018-01-24T15:41:50.338Z,8.1
2018-01-24T15:43:10.146Z,8
2018-01-24T15:44:29.965Z,8.1
2018-01-24T15:45:54.835Z,8
2018-01-24T15:47:17.165Z,8
2018-01-24T15:48:42.051Z,7.9
2018-01-24T15:50:01.899Z,7.9
2018-01-24T15:51:24.263Z,7.9
2018-01-24T15:52:44.069Z,7.9
2018-01-24T15:54:03.924Z,7.9
2018-01-24T15:55:23.730Z,7.9
2018-01-24T15:56:43.553Z,7.9
2018-01-24T15:58:03.352Z,7.9
2018-01-24T15:59:23.223Z,7.8
2018-01-24T16:00:43.022Z,7.8
2018-01-24T16:02:07.887Z,7.7
2018-01-24T16:03:30.258Z,7.7
2018-01-24T16:04:50.102Z,7.7
2018-01-24T16:06:12.499Z,7.6
2018-01-24T16:07:32.325Z,7.6
2018-01-24T16:08:52.131Z,7.5
2018-01-24T16:10:11.925Z,7.5
2018-01-24T16:11:36.810Z,7.5
2018-01-24T16:12:56.670Z,7.5
2018-01-24T16:14:19.044Z,7.5
2018-01-24T16:15:38.840Z,7.5
2018-01-24T16:17:01.193Z,7.5
2018-01-24T16:18:28.656Z,7.5
2018-01-24T16:19:51.011Z,7.5
2018-01-24T16:21:10.839Z,7.4
2018-01-24T16:22:33.165Z,7.4
2018-01-24T16:23:53.015Z,7.5
2018-01-24T16:25:15.379Z,7.5
2018-01-24T16:26:37.768Z,7.4
2018-01-24T16:27:57.596Z,7.5
2018-01-24T16:29:17.392Z,7.5
2018-01-24T16:30:37.202Z,7.5
2018-01-24T16:31:57.039Z,7.6
2018-01-24T16:33:16.904Z,7.6
2018-01-24T16:34:36.800Z,7.5
2018-01-24T16:36:01.675Z,7.5
2018-01-24T16:37:21.564Z,7.5
2018-01-24T16:38:41.430Z,7.6
2018-01-24T16:40:06.337Z,7.5
2018-01-24T16:41:31.232Z,7.5
2018-01-24T16:42:51.069Z,7.5
2018-01-24T16:44:13.399Z,7.6
2018-01-24T16:45:33.255Z,7.6
2018-01-24T16:46:53.079Z,7.6
2018-01-24T16:48:20.513Z,7.7
2018-01-24T16:49:40.385Z,7.9
2018-01-24T16:51:00.214Z,7.9
2018-01-24T16:52:20.067Z,7.9
2018-01-24T16:53:39.870Z,7.9
2018-01-24T16:54:59.681Z,7.9
2018-01-24T16:56:19.529Z,7.9
2018-01-24T16:57:44.427Z,7.9
2018-01-24T16:59:06.769Z,7.9
2018-01-24T17:00:26.611Z,7.9
2018-01-24T17:01:46.498Z,7.9
2018-01-24T17:03:06.386Z,7.9
2018-01-24T17:04:26.218Z,7.9
2018-01-24T17:05:48.570Z,7.9
2018-01-24T17:07:08.389Z,7.9
2018-01-24T17:08:28.181Z,7.9
2018-01-24T17:09:47.992Z,7.8
2018-01-24T17:11:10.373Z,7.8
2018-01-24T17:12:30.174Z,7.8
2018-01-24T17:13:49.978Z,7.8
2018-01-24T17:15:12.319Z,7.7
2018-01-24T17:16:34.644Z,7.7
2018-01-24T17:17:56.987Z,7.7
2018-01-24T17:19:16.816Z,7.8
2018-01-24T17:20:36.645Z,7.8
2018-01-24T17:21:59.040Z,7.7
2018-01-24T17:23:18.834Z,7.7
2018-01-24T17:24:38.646Z,7.7
2018-01-24T17:25:58.444Z,7.7
2018-01-24T17:27:18.288Z,7.7
2018-01-24T17:28:38.128Z,7.7
2018-01-24T17:30:03.056Z,7.6
2018-01-24T17:31:25.426Z,7.6
2018-01-24T17:32:47.780Z,7.6
2018-01-24T17:34:07.605Z,7.6
2018-01-24T17:35:27.414Z,7.6
2018-01-24T17:36:49.751Z,7.6
2018-01-24T17:38:12.129Z,7.6
2018-01-24T17:39:31.931Z,7.5
2018-01-24T17:40:59.379Z,7.4
2018-01-24T17:42:21.739Z,7.4
2018-01-24T17:43:41.580Z,7.4
2018-01-24T17:45:06.529Z,7.5
2018-01-24T17:46:26.411Z,7.5
2018-01-24T17:47:51.375Z,7.6
2018-01-24T17:49:16.279Z,7.5
2018-01-24T17:50:41.208Z,7.5
2018-01-24T17:52:03.544Z,7.4
2018-01-24T17:53:23.377Z,7.4
2018-01-24T17:54:43.190Z,7.3
2018-01-24T17:56:03.053Z,7.3
2018-01-24T17:57:22.910Z,7.4
2018-01-24T17:58:45.283Z,7.4
2018-01-24T18:00:05.107Z,7.5
2018-01-24T18:01:24.956Z,7.5
2018-01-24T18:02:49.814Z,7.6
2018-01-24T18:04:09.628Z,7.5
2018-01-24T18:05:29.492Z,7.5
2018-01-24T18:06:51.879Z,7.4
2018-01-24T18:08:11.754Z,7.4
2018-01-24T18:09:31.608Z,7.4
2018-01-24T18:10:51.457Z,7.5
2018-01-24T18:12:11.310Z,7.5
2018-01-24T18:13:31.199Z,7.5
2018-01-24T18:14:54.033Z,7.4
2018-01-24T18:16:13.828Z,7.4
2018-01-24T18:17:33.684Z,7.4
2018-01-24T18:18:53.490Z,7.4
2018-01-24T18:20:13.340Z,7.4
2018-01-24T18:21:33.149Z,7.3
2018-01-24T18:22:52.981Z,7.3
2018-01-24T18:24:12.813Z,7.3
2018-01-24T18:25:32.639Z,7.3
2018-01-24T18:26:52.460Z,7.3
2018-01-24T18:28:12.275Z,7.3
2018-01-24T18:29:32.132Z,7.3
2018-01-24T18:30:57.033Z,7.4
2018-01-24T18:32:19.391Z,7.3
2018-01-24T18:33:39.203Z,7.3
2018-01-24T18:35:01.605Z,7.3
2018-01-24T18:36:21.450Z,7.3
2018-01-24T18:37:41.318Z,7.3
2018-01-24T18:39:01.223Z,7.4
2018-01-24T18:40:28.615Z,7.4
2018-01-24T18:41:50.986Z,7.3
2018-01-24T18:43:13.362Z,7.3
2018-01-24T18:44:33.162Z,7.2
2018-01-24T18:45:55.555Z,7.2
2018-01-24T18:47:20.487Z,7.2
2018-01-24T18:48:42.880Z,7.3
2018-01-24T18:50:10.300Z,7.3
2018-01-24T18:51:30.109Z,7.4
2018-01-24T18:52:49.937Z,7.4
2018-01-24T18:54:09.801Z,7.4
2018-01-24T18:55:32.151Z,7.3